Latest Weather Observations for Warburton

IDD60801

Issued at 5:05 pm CST Friday 22 August 2014 (issued every 30 minutes, with the page automatically refreshed every 10 minutes)

About weather observations | Map of weather stations | Latest weather observations for NT | Other Formats
Station Details ID: 013011 Name: WARBURTON AIRFIELD Lat: -26.13 Lon: 126.58 Height: 459.0 m
Data from the previous 72 hours. | See also: Recent months at Warburton
Date/Time
CST
Temp
°C
App
Temp
°C
Dew
Point
Rel
Hum
%
Delta-T
°C
Wind Press
QNH
hPa
Press
MSL
hPa
Rain
since 9 am
mm
Dir
 
Spd
km/h
Gust
km/h
Spd
kts
Gust
kts
22/05:00pm 28.3 24.2 -6.2 10 14.9 W 7 15 4 8 1018.7 - 0.0
22/04:30pm 28.4 23.2 -6.1 10 14.9 N 13 19 7 10 1018.7 1017.9 0.0
22/04:00pm 28.8 24.4 -5.8 10 15.1 NW 9 24 5 13 1018.7 - 0.0
22/03:30pm 28.5 24.1 -6.0 10 15.0 S 9 19 5 10 1018.8 - 0.0
22/03:00pm 28.2 23.8 -6.3 10 14.9 N 9 17 5 9 1019.0 - 0.0
22/02:30pm 27.7 21.1 -6.6 10 14.6 N 20 33 11 18 1019.3 - 0.0
22/02:00pm 28.6 22.3 -6.0 10 15.0 NW 19 28 10 15 1019.6 - 0.0
22/01:30pm 27.8 22.2 -6.6 10 14.7 NW 15 22 8 12 1020.0 1019.2 0.0
22/01:00pm 27.1 20.5 -7.1 10 14.4 N 20 30 11 16 1020.5 - 0.0
22/12:30pm 27.3 20.1 -5.7 11 14.3 N 24 33 13 18 1020.9 - 0.0
22/12:00pm 26.4 18.3 -6.4 11 13.9 N 28 37 15 20 1021.2 - 0.0
22/11:30am 25.6 17.2 -5.9 12 13.4 N 30 39 16 21 1021.5 - 0.0
22/11:00am 25.1 16.4 -5.2 13 13.0 N 32 37 17 20 1021.7 - 0.0
22/10:30am 24.1 16.1 -6.0 13 12.5 NNW 28 35 15 19 1021.7 1020.9 0.0
22/10:00am 22.8 15.2 -5.2 15 11.7 N 26 37 14 20 1021.6 - 0.0
22/09:30am 20.8 14.0 -5.1 17 10.7 N 22 35 12 19 1021.5 - 0.0
22/09:00am 17.7 12.8 -3.7 23 8.8 N 13 19 7 10 1021.5 - 0.0
22/08:30am 14.3 10.1 -3.9 28 7.2 N 9 11 5 6 1021.1 - 0.0
22/08:00am 10.3 6.4 -4.5 35 5.5 N 7 9 4 5 1020.7 - 0.0
22/07:30am 9.7 6.4 -4.6 36 5.3 NW 4 9 2 5 1020.4 1019.6 0.0
22/07:00am 9.9 6.0 -4.8 35 5.4 N 7 11 4 6 1020.0 - 0.0
22/06:30am 10.9 6.6 -5.1 32 5.9 N 9 11 5 6 1019.7 - 0.0
22/06:00am 11.5 7.2 -5.0 31 6.2 N 9 11 5 6 1019.3 - 0.0
22/05:30am 12.2 7.9 -5.3 29 6.6 NW 9 13 5 7 1019.3 - 0.0
22/05:00am 13.5 8.5 -4.6 28 7.0 N 13 17 7 9 1018.8 - 0.0
22/04:30am 12.6 7.9 -4.9 29 6.6 N 11 13 6 7 1018.8 1018.0 0.0
22/04:00am 13.4 8.7 -5.2 27 7.1 N 11 15 6 8 1018.8 - 0.0
22/03:30am 15.0 9.9 -4.8 25 7.7 N 13 17 7 9 1018.8 - 0.0
22/03:00am 14.4 9.7 -4.8 26 7.5 N 11 15 6 8 1018.9 - 0.0
22/02:30am 14.9 10.2 -4.9 25 7.7 N 11 15 6 8 1018.9 - 0.0
22/02:00am 15.2 10.1 -5.2 24 7.9 N 13 17 7 9 1019.2 - 0.0
22/01:30am 15.3 10.6 -5.1 24 7.9 N 11 15 6 8 1019.2 1018.4 0.0
22/01:00am 14.7 10.0 -5.1 25 7.7 N 11 15 6 8 1019.3 - 0.0
22/12:30am 15.2 10.5 -5.2 24 7.9 N 11 13 6 7 1019.2 - 0.0
22/12:00am 15.1 10.0 -4.8 25 7.8 NNE 13 15 7 8 1019.3 - 0.0
 
Date/Time
CST
Temp
°C
App
Temp
°C
Dew
Point
Rel
Hum
%
Delta-T
°C
Wind Press
QNH
hPa
Press
MSL
hPa
Rain
since 9 am
mm
Dir
 
Spd
km/h
Gust
km/h
Spd
kts
Gust
kts
21/11:30pm 15.7 11.0 -4.8 24 8.1 N 11 13 6 7 1019.4 - 0.0
21/11:00pm 16.3 11.6 -4.8 23 8.4 N 11 13 6 7 1019.5 - 0.0
21/10:30pm 16.5 11.5 -4.7 23 8.4 NNE 13 13 7 7 1019.4 1018.6 0.0
21/10:00pm 17.0 12.3 -4.8 22 8.7 NNE 11 13 6 7 1019.4 - 0.0
21/09:30pm 18.1 13.4 -5.2 20 9.3 N 11 15 6 8 1019.2 - 0.0
21/09:00pm 18.2 13.5 -5.1 20 9.4 N 11 11 6 6 1019.0 - 0.0
21/08:30pm 19.0 13.9 -5.1 19 9.8 NNE 13 15 7 8 1018.6 - 0.0
21/08:00pm 19.9 15.2 -5.1 18 10.2 NNE 11 13 6 7 1018.3 - 0.0
21/07:30pm 21.7 17.0 -5.2 16 11.1 N 11 13 6 7 1017.9 1017.1 0.0
21/07:00pm 23.6 18.1 -5.4 14 12.2 N 15 19 8 10 1017.6 - 0.0
21/06:30pm 25.5 20.3 -6.0 12 13.3 N 13 19 7 10 1017.5 - 0.0
21/06:00pm 26.4 21.2 -6.4 11 13.9 NNW 13 22 7 12 1017.3 - 0.0
21/05:30pm 26.7 20.4 -6.2 11 14.0 NNW 19 28 10 15 1017.0 - 0.0
21/05:00pm 26.9 20.0 -6.0 11 14.1 NNW 22 32 12 17 1016.7 - 0.0
21/04:30pm 27.1 21.5 -5.9 11 14.2 WNW 15 22 8 12 1016.7 1015.9 0.0
21/04:00pm 26.8 19.9 -6.1 11 14.1 NW 22 32 12 17 1016.6 - 0.0
21/03:30pm 27.2 19.9 -5.8 11 14.2 NW 24 35 13 19 1016.9 - 0.0
21/03:00pm 27.5 21.2 -5.6 11 14.4 NW 19 26 10 14 1017.0 - 0.0
21/02:30pm 26.7 21.6 -5.0 12 13.8 N 13 20 7 11 1017.4 - 0.0
21/02:00pm 26.9 22.6 -4.9 12 13.9 WNW 9 22 5 12 1017.7 - 0.0
21/01:30pm 26.2 19.9 -5.4 12 13.6 NNW 19 28 10 15 1018.2 1017.4 0.0
21/01:00pm 26.6 19.4 -5.1 12 13.8 NNW 24 35 13 19 1018.7 - 0.0
21/12:30pm 25.8 18.3 -4.7 13 13.3 N 26 33 14 18 1019.3 - 0.0
21/12:00pm 24.6 16.3 -4.6 14 12.6 NNW 30 37 16 20 1019.6 - 0.0
21/11:30am 24.7 16.9 -3.6 15 12.4 N 28 35 15 19 1019.8 - 0.0
21/11:00am 23.0 14.9 -3.3 17 11.5 N 30 41 16 22 1020.1 - 0.0
21/10:30am 22.1 14.7 -3.3 18 10.9 N 26 35 14 19 1020.2 1019.4 0.0
21/10:00am 20.5 13.1 -3.9 19 10.3 N 26 35 14 19 1020.2 - 0.0
21/09:30am 18.8 12.8 -3.3 22 9.3 N 19 28 10 15 1020.0 - 0.0
21/09:00am 16.7 10.7 -3.4 25 8.2 N 19 26 10 14 1019.8 - 0.0
21/08:30am 14.7 9.4 -3.6 28 7.3 N 15 24 8 13 1019.4 - 0.0
21/08:00am 12.8 7.5 -3.9 31 6.5 NNE 15 20 8 11 1019.0 - 0.0
21/07:30am 11.3 6.7 -4.4 33 5.9 N 11 15 6 8 1018.6 1017.8 0.0
21/07:00am 11.6 6.2 -4.1 33 6.0 N 15 19 8 10 1018.2 - 0.0
21/06:30am 8.2 4.0 -4.2 41 4.5 N 9 13 5 7 1018.0 - 0.0
21/06:00am 8.3 4.0 -4.5 40 4.7 N 9 11 5 6 1017.9 - 0.0
21/05:30am 8.6 4.7 -4.9 38 4.9 NW 7 9 4 5 1017.7 - 0.0
21/05:00am 9.2 5.3 -4.7 37 5.1 NNW 7 7 4 4 1017.5 - 0.0
21/04:30am 9.0 5.0 -5.2 36 5.1 NNW 7 7 4 4 1017.4 1016.6 0.0
21/04:00am 9.9 5.6 -4.8 35 5.4 N 9 9 5 5 1017.5 - 0.0
21/03:30am 10.1 6.2 -4.6 35 5.5 N 7 9 4 5 1017.6 - 0.0
21/03:00am 11.1 6.5 -4.5 33 5.9 NNE 11 11 6 6 1017.8 - 0.0
21/02:30am 10.6 5.9 -4.6 34 5.7 NNE 11 13 6 7 1018.0 - 0.0
21/02:00am 10.3 5.6 -4.9 34 5.6 NNE 11 11 6 6 1018.2 - 0.0
21/01:30am 11.2 6.9 -4.5 33 5.9 N 9 11 5 6 1018.3 1017.5 0.0
21/01:00am 11.1 7.2 -4.9 32 6.0 N 7 9 4 5 1018.3 - 0.0
21/12:30am 12.2 8.5 -4.4 31 6.3 N 6 7 3 4 1018.4 - 0.0
21/12:00am 13.3 9.0 -4.8 28 6.9 NNE 9 11 5 6 1018.5 - 0.0
 
Date/Time
CST
Temp
°C
App
Temp
°C
Dew
Point
Rel
Hum
%
Delta-T
°C
Wind Press
QNH
hPa
Press
MSL
hPa
Rain
since 9 am
mm
Dir
 
Spd
km/h
Gust
km/h
Spd
kts
Gust
kts
20/11:30pm 14.2 9.6 -4.5 27 7.3 NNE 11 13 6 7 1018.6 - 0.0
20/11:00pm 15.0 9.7 -3.8 27 7.5 NNE 15 17 8 9 1018.7 - 0.0
20/10:30pm 14.0 9.4 -3.7 29 7.0 NE 11 13 6 7 1018.6 1017.8 0.0
20/10:00pm 13.3 8.7 -3.9 30 6.7 NNE 11 11 6 6 1018.6 - 0.0
20/09:30pm 14.2 10.4 -4.0 28 7.2 N 7 9 4 5 1018.3 - 0.0
20/09:00pm 14.9 10.6 -4.4 26 7.6 NE 9 11 5 6 1018.1 - 0.0
20/08:30pm 16.2 12.4 -3.8 25 8.1 ENE 7 7 4 4 1017.8 - 0.0
20/08:00pm 18.0 14.2 -4.0 22 9.0 ESE 7 9 4 5 1017.6 - 0.0
20/07:30pm 20.9 18.0 -4.3 18 10.5 SSW 2 7 1 4 1017.3 1016.5 0.0
20/07:00pm 22.9 19.5 -5.1 15 11.8 WSW 4 7 2 4 1017.2 - 0.0
20/06:30pm 24.9 20.5 -5.4 13 12.9 W 9 13 5 7 1017.0 - 0.0
20/06:00pm 25.3 19.8 -5.1 13 13.1 WSW 15 24 8 13 1016.6 - 0.0
20/05:30pm 26.0 22.0 -5.6 12 13.5 NW 7 13 4 7 1016.4 - 0.0
20/05:00pm 26.3 21.2 -5.3 12 13.6 W 13 17 7 9 1016.4 - 0.0
20/04:30pm 26.1 20.6 -5.5 12 13.6 W 15 20 8 11 1016.4 1015.6 0.0
20/04:00pm 26.5 21.4 -5.2 12 13.7 NNW 13 20 7 11 1016.4 - 0.0
20/03:30pm 25.8 19.5 -5.7 12 13.4 WNW 19 30 10 16 1016.7 - 0.0
20/03:00pm 25.8 19.5 -5.7 12 13.4 NNW 19 32 10 17 1016.9 - 0.0
20/02:30pm 25.2 20.1 -5.1 13 13.0 N 13 19 7 10 1017.1 - 0.0
20/02:00pm 25.0 19.5 -5.3 13 12.9 NW 15 26 8 14 1017.7 - 0.0
20/01:30pm 24.8 19.3 -5.5 13 12.8 N 15 28 8 15 1018.1 1017.3 0.0
20/01:00pm 24.8 18.9 -5.5 13 12.9 NW 17 26 9 14 1018.8 - 0.0
20/12:30pm 24.1 17.7 -5.0 14 12.4 NNW 20 28 11 15 1019.3 - 0.0
20/12:00pm 24.2 17.4 -5.0 14 12.4 N 22 33 12 18 1019.6 - 0.0
20/11:30am 23.1 16.3 -4.9 15 11.8 N 22 33 12 18 1019.9 - 0.0
20/11:00am 23.0 16.2 -5.0 15 11.8 N 22 30 12 16 1020.2 - 0.0
20/10:30am 21.6 14.9 -4.5 17 10.9 N 22 30 12 16 1020.2 1019.4 0.0
20/10:00am 20.1 13.4 -4.2 19 10.1 N 22 32 12 17 1020.4 - 0.0
20/09:30am 18.1 12.4 -3.9 22 9.0 N 17 22 9 12 1020.2 - 0.0
20/09:00am 16.1 10.8 -3.9 25 8.1 N 15 22 8 12 1019.9 - 0.0
20/08:30am 14.2 9.6 -4.0 28 7.2 NNE 11 15 6 8 1019.5 - 0.0
20/08:00am 12.2 7.9 -4.4 31 6.3 NNE 9 11 5 6 1019.0 - 0.0
20/07:30am 12.1 6.7 -4.5 31 6.3 NNE 15 20 8 11 1018.5 1017.7 0.0
20/07:00am 12.0 6.6 -4.6 31 6.3 NNE 15 19 8 10 1018.1 - 0.0
20/06:30am 10.8 6.1 -4.8 33 5.8 NNE 11 13 6 7 1017.9 - 0.0
20/06:00am 11.4 6.7 -4.7 32 6.1 N 11 13 6 7 1017.8 - 0.0
20/05:30am 11.1 6.4 -4.9 32 6.0 NNE 11 11 6 6 1017.8 - 0.0
20/05:00am 10.4 6.1 -5.2 33 5.7 N 9 11 5 6 1017.8 - 0.0
20/04:30am 10.7 6.4 -5.3 32 5.9 N 9 11 5 6 1017.6 1016.8 0.0
20/04:00am 11.5 6.4 -5.0 31 6.2 NNE 13 15 7 8 1017.6 - 0.0
20/03:30am 11.4 6.7 -5.1 31 6.2 N 11 13 6 7 1017.8 - 0.0
20/03:00am 9.2 5.2 -5.4 35 5.3 NNE 7 7 4 4 1018.0 - 0.0
20/02:30am 9.9 5.9 -5.6 33 5.6 N 7 7 4 4 1018.2 - 0.0
20/02:00am 11.3 6.9 -5.6 30 6.2 NNE 9 9 5 5 1018.3 - 0.0
20/01:30am 11.9 7.5 -5.5 29 6.5 NNE 9 13 5 7 1018.5 1017.7 0.0
20/01:00am 12.2 7.4 -5.7 28 6.6 NNE 11 13 6 7 1018.8 - 0.0
20/12:30am 12.2 7.4 -5.7 28 6.6 NE 11 13 6 7 1018.9 - 0.0
20/12:00am 11.3 6.5 -5.6 30 6.2 NNE 11 13 6 7 1019.0 - 0.0
 
Date/Time
CST
Temp
°C
App
Temp
°C
Dew
Point
Rel
Hum
%
Delta-T
°C
Wind Press
QNH
hPa
Press
MSL
hPa
Rain
since 9 am
mm
Dir
 
Spd
km/h
Gust
km/h
Spd
kts
Gust
kts
19/11:30pm 9.4 5.0 -6.0 33 5.5 NNE 9 9 5 5 1019.3 - 0.0
19/11:00pm 10.5 6.5 -5.5 32 5.8 NNE 7 7 4 4 1019.4 - 0.0
19/10:30pm 10.6 6.6 -5.8 31 5.9 NNE 7 7 4 4 1019.5 1018.7 0.0
19/10:00pm 11.5 8.9 -5.4 30 6.3 CALM 0 0 0 0 1019.4 - 0.0
19/09:30pm 13.0 10.3 -5.5 27 7.0 CALM 0 0 0 0 1019.4 - 0.0
19/09:00pm 13.2 8.9 -4.9 28 6.9 E 9 11 5 6 1019.2 - 0.0
19/08:30pm 14.3 10.5 -5.4 25 7.5 ESE 6 7 3 4 1018.9 - 0.0
19/08:00pm 15.7 12.4 -4.8 24 8.1 ENE 4 6 2 3 1018.8 - 0.0
19/07:30pm 18.1 14.3 -5.9 19 9.4 NNE 6 9 3 5 1018.5 1017.7 0.0
19/07:00pm 20.8 18.1 -5.9 16 10.8 CALM 0 0 0 0 1018.2 - 0.0

Other Formats:

Comma delimited format used in spreadsheet applications
http://www.bom.gov.au/fwo/IDD60801/IDD60801.94457.axf

JavaScript Object Notation format (JSON) in row-major order
http://www.bom.gov.au/fwo/IDD60801/IDD60801.94457.json